Wells, Nevada
Current Conditions -  °F | °C
As of 4:56 PM on Sunday 21 Dec 2014 (Local Time) from KEKO Reporting Station
Light Rain Light Rain  
Wind Chill: 40°   Ceiling: 3200
Heat Index: 46°   Visibility: 8mi
Dew Point: 43°   Wind: 14mph
Humidity: 89%   Direction: 260°W
Pressure: 30.07"   Gusts: NA
Location:  41.11°N, 114.96°W
Report Text: KEKO 220056Z AUTO 26012KT 8SM -RA FEW020 SCT027 OVC032 08/06 A3007 RMK AO2 RAB21 SLP177 P0001 T00780061
Loading
Personal Weather Stations






























Interactive Weather Map New forecast layout! Learn more

10-Day Weather Forecast

Advertisements
Track Severe Weather on mobile